Pineville, WV

1:33 PM EDT on May 28, 2017 (GMT -0400)
Pineville

Weather History for KI16 - September, 2013

Change the Weather History Date:

Tuesday, September 24, 2013

  Actual Average (KBKW) Record (KBKW)
Temperature  
Mean Temperature 64 °F -  
Max Temperature 78 °F 68 °F 89 °F (1930)
Min Temperature 49 °F 49 °F 29 °F (1952)
Degree Days  
Heating Degree Days 2    
Growing Degree Days 14 (Base 50)    
Moisture  
Dew Point 57 °F    
Average Humidity 90    
Maximum Humidity 100    
Minimum Humidity 51    
Precipitation  
Precipitation 0.00 in - - ()
Sea Level Pressure  
Sea Level Pressure 30.09 in    
Wind  
Wind Speed - (North)    
Max Wind Speed -    
Max Gust Speed -    
Visibility 6 miles    
Events Fog    
Averages and records for this station are not official NWS values.
T = Trace of Precipitation, MM = Missing Value Source: NWS Daily Summary

Daily Weather History Graph

Daily Weather History Graph

Search for Another Location

Airport or City:

Trip Planner

Search our weather history database for the weather conditions in past years. The results will help you decide how hot, cold, wet, or windy it might be!

Date:

Astronomy

Sep. 24, 2013 Rise Set
Actual Time 7:15 AM EDT 7:19 PM EDT
Civil Twilight 6:49 AM EDT 7:45 PM EDT
Nautical Twilight 6:19 AM EDT 8:16 PM EDT
Astronomical Twilight 5:48 AM EDT 8:47 PM EDT
Moon 10:42 PM EDT (9/24) 12:23 PM EDT (9/24)
Length of Visible Light 12h 55m
Length of Day
12h 03m
Waning Gibbous, 73% of the Moon is Illuminated
Sep 24
Waning Gibbous
Sep 26
Last Quarter
Oct 4
New
Oct 11
First Quarter
Oct 18
Full

Hourly Weather History & Observations

Time (EDT) Temp. Dew Point Humidity Pressure Visibility Wind Dir Wind Speed Gust Speed Precip Events Conditions
12:15 AM 50.2 °F 50.2 °F 100% 30.14 in 5.0 mi North - - N/A   Clear
12:35 AM 50.2 °F 50.2 °F 100% 30.13 in 5.0 mi North - - N/A   Mostly Cloudy
12:55 AM 50.4 °F 50.4 °F 100% 30.13 in 0.8 mi North - - N/A   Overcast
1:15 AM 50.4 °F 50.4 °F 100% 30.13 in 3.0 mi North - - N/A   Overcast
1:35 AM 51.8 °F 51.8 °F 100% 30.13 in 1.2 mi North - - N/A   Overcast
1:55 AM 51.6 °F 51.6 °F 100% 30.13 in 0.5 mi North - - N/A Fog Fog
2:15 AM 51.1 °F 51.1 °F 100% 30.13 in 0.8 mi North - - N/A   Overcast
2:35 AM 51.1 °F 51.1 °F 100% 30.14 in 0.8 mi North - - N/A   Overcast
2:55 AM 50.9 °F 50.9 °F 100% 30.14 in 0.8 mi North - - N/A   Overcast
3:55 AM 50.5 °F 50.5 °F 100% 30.13 in 3.0 mi North - - N/A   Overcast
4:15 AM 50.5 °F 50.5 °F 100% 30.13 in 1.5 mi North - - N/A   Overcast
4:35 AM 50.5 °F 50.5 °F 100% 30.13 in 1.0 mi North - - N/A   Overcast
4:55 AM 50.2 °F 50.2 °F 100% 30.13 in 2.5 mi North - - N/A   Overcast
5:35 AM 49.5 °F 49.5 °F 100% 30.13 in 0.8 mi North - - N/A   Overcast
5:55 AM 49.3 °F 49.3 °F 100% 30.13 in 0.8 mi North - - N/A   Overcast
6:15 AM 49.6 °F 49.6 °F 100% 30.14 in 0.8 mi North - - N/A   Overcast
6:35 AM 49.6 °F 49.6 °F 100% 30.14 in 0.2 mi North - - N/A Fog Fog
6:55 AM 49.5 °F 49.5 °F 100% 30.15 in 0.2 mi North - - N/A Fog Fog
7:15 AM 49.1 °F 49.1 °F 100% 30.15 in 0.2 mi North - - N/A Fog Fog
7:55 AM 49.1 °F 49.1 °F 100% 30.15 in 0.2 mi North - - N/A Fog Fog
8:15 AM 49.1 °F 49.1 °F 100% 30.15 in 0.2 mi North - - N/A Fog Fog
8:35 AM 50.0 °F 50.0 °F 100% 30.15 in 0.2 mi North - - N/A Fog Fog
8:55 AM 50.9 °F 50.9 °F 100% 30.16 in 0.5 mi North - - N/A Fog Fog
9:15 AM 52.5 °F 52.5 °F 100% 30.16 in 4.0 mi North - - N/A   Overcast
9:35 AM 53.8 °F 53.8 °F 100% 30.16 in 7.0 mi North - - N/A   Scattered Clouds
9:55 AM 57.2 °F 57.2 °F 100% 30.15 in 10.0 mi North - - N/A   Clear
10:15 AM 60.1 °F 58.3 °F 94% 30.15 in 10.0 mi North - - N/A   Clear
10:35 AM 62.8 °F 58.5 °F 86% 30.15 in 10.0 mi North - - N/A   Clear
10:55 AM 65.3 °F 58.5 °F 78% 30.14 in 10.0 mi North - - N/A   Clear
11:15 AM 68.0 °F 59.0 °F 73% 30.14 in 10.0 mi North - - N/A   Clear
11:35 AM 68.9 °F 60.1 °F 73% 30.13 in 10.0 mi North - - N/A   Clear
11:55 AM 71.6 °F 60.8 °F 69% 30.13 in 10.0 mi North - - N/A   Clear
12:15 PM 72.7 °F 60.4 °F 65% 30.12 in 10.0 mi North - - N/A   Clear
12:35 PM 73.6 °F 60.6 °F 64% 30.11 in 10.0 mi North - - N/A   Clear
12:55 PM 74.7 °F 59.7 °F 60% 30.11 in 10.0 mi North - - N/A   Clear
1:55 PM 73.8 °F 62.6 °F 68% 30.08 in 10.0 mi North - - N/A   Scattered Clouds
2:15 PM 75.0 °F 59.7 °F 59% 30.07 in 10.0 mi North - - N/A   Mostly Cloudy
2:35 PM 73.8 °F 60.6 °F 63% 30.06 in 10.0 mi North - - N/A   Scattered Clouds
2:55 PM 71.8 °F 61.3 °F 70% 30.06 in 10.0 mi North - - N/A   Clear
3:15 PM 78.4 °F 59.0 °F 51% 30.06 in 10.0 mi North - - N/A   Clear
3:35 PM 74.7 °F 61.5 °F 63% 30.05 in 10.0 mi North - - N/A   Clear
3:55 PM 73.2 °F 62.8 °F 70% 30.04 in 10.0 mi North - - N/A   Clear
4:15 PM 69.1 °F 64.0 °F 84% 30.04 in 10.0 mi North - - N/A   Clear
4:35 PM 71.1 °F 64.6 °F 80% 30.03 in 10.0 mi North - - N/A   Clear
4:55 PM 73.0 °F 64.2 °F 74% 30.03 in 10.0 mi North - - N/A   Clear
5:15 PM 70.9 °F 64.4 °F 80% 30.02 in 10.0 mi North - - N/A   Clear
5:35 PM 68.2 °F 63.5 °F 85% 30.02 in 10.0 mi North - - N/A   Clear
5:55 PM 66.4 °F 62.8 °F 88% 30.02 in 10.0 mi North - - N/A   Clear
6:15 PM 66.4 °F 63.3 °F 90% 30.02 in 10.0 mi North - - N/A   Clear
6:35 PM 65.3 °F 62.8 °F 92% 30.01 in 10.0 mi North - - N/A   Clear
6:55 PM 64.4 °F 62.8 °F 94% 30.01 in 10.0 mi North - - N/A   Clear
7:15 PM 63.0 °F 61.7 °F 96% 30.01 in 10.0 mi North - - N/A   Clear
7:35 PM 61.9 °F 61.0 °F 97% 30.01 in 10.0 mi North - - N/A   Clear
7:55 PM 61.0 °F 60.6 °F 99% 30.01 in 10.0 mi North - - N/A   Clear
8:15 PM 60.8 °F 60.6 °F 99% 30.01 in 7.0 mi North - - N/A   Clear
8:35 PM 60.1 °F 59.9 °F 99% 30.01 in 7.0 mi North - - N/A   Clear
8:55 PM 59.9 °F 59.9 °F 100% 30.02 in 7.0 mi North - - N/A   Clear
9:15 PM 59.5 °F 59.5 °F 100% 30.02 in 7.0 mi North - - N/A   Clear
9:35 PM 59.2 °F 59.2 °F 100% 30.03 in 5.0 mi North - - N/A   Clear
9:55 PM 59.0 °F 59.0 °F 100% 30.03 in 7.0 mi North - - N/A   Clear
10:15 PM 58.3 °F 58.3 °F 100% 30.03 in 5.0 mi North - - N/A   Clear
10:35 PM 58.1 °F 58.1 °F 100% 30.03 in 10.0 mi North - - N/A   Clear
10:55 PM 58.1 °F 58.1 °F 100% 30.03 in 7.0 mi North - - N/A   Clear
11:15 PM 57.7 °F 57.7 °F 100% 30.03 in 7.0 mi North - - N/A   Clear
11:35 PM 57.2 °F 57.2 °F 100% 30.03 in 5.0 mi North - - N/A   Clear
11:55 PM 57.2 °F 57.2 °F 100% 30.02 in 7.0 mi North - - N/A   Clear